Bellevue, Ohio
Current Conditions -  °F | °C
As of 2:13 PM on Thursday 30 Oct 2014 (Local Time) from KPCW Reporting Station
Clear Clear  
Wind Chill: 52°   Ceiling: Unl
Heat Index: 52°   Visibility: 10mi
Dew Point: 37°   Wind: 9mph
Humidity: 58%   Direction: 330°NNW
Pressure: 30.1"   Gusts: NA
Location:  41.27°N, 82.84°W
Report Text: KPCW 301813Z AUTO 33008KT 10SM CLR 11/03 A3010 RMK AO2 $
Loading
Personal Weather Stations






























Interactive Weather Map
Tropical Storm Tracking
New forecast layout! Learn more

10-Day Weather Forecast

Advertisements
Track Severe Weather on mobile